Time;durP1;ratioP1;P1;durP2;ratioP2;P2;SDS_P1;SDS_P2;PMS_P1;PMS_P2;Temp;Humidity;BMP_temperature;BMP_pressure;BME280_temperature;BME280_humidity;BME280_pressure;Samples;Min_cycle;Max_cycle;Signal;HPM_P1;HPM_P2
2022/11/24 00:01:27;;;;;;;3.60;1.77;;;6.60;99.90;;;;;;6277968;22;20394;-77
2022/11/24 00:04:02;;;;;;;5.70;2.40;;;6.60;99.90;;;;;;6277525;22;20412;-78
2022/11/24 00:06:30;;;;;;;5.80;2.47;;;6.60;99.90;;;;;;6278892;22;20390;-78
2022/11/24 00:08:58;;;;;;;3.07;1.53;;;6.50;99.90;;;;;;6277870;22;20445;-78
2022/11/24 00:11:28;;;;;;;2.90;1.90;;;6.50;99.90;;;;;;6278359;22;20935;-78
2022/11/24 00:13:58;;;;;;;8.70;3.63;;;6.60;99.90;;;;;;6287609;22;20432;-78
2022/11/24 00:16:27;;;;;;;3.70;2.03;;;6.50;99.90;;;;;;6278478;22;20436;-78
2022/11/24 00:19:17;;;;;;;3.90;2.37;;;6.60;99.90;;;;;;6278027;22;20918;-78
2022/11/24 00:24:32;;;;;;;2.33;1.80;;;6.60;99.90;;;;;;6277566;22;20409;-77
2022/11/24 00:26:59;;;;;;;4.93;2.53;;;6.50;99.90;;;;;;6277640;22;20443;-78
2022/11/24 00:29:27;;;;;;;3.60;2.50;;;6.60;99.90;;;;;;6277945;22;20899;-78
2022/11/24 00:31:56;;;;;;;2.33;2.00;;;6.50;99.90;;;;;;6279425;22;20433;-78
2022/11/24 00:34:24;;;;;;;2.87;2.00;;;6.50;99.90;;;;;;6278331;22;20464;-78
2022/11/24 00:36:50;;;;;;;4.10;2.27;;;6.10;99.90;;;;;;6275980;22;20435;-78
2022/11/24 00:39:17;;;;;;;5.00;2.17;;;6.60;99.90;;;;;;6276557;22;20923;-78
2022/11/24 00:41:44;;;;;;;2.37;2.17;;;6.60;99.90;;;;;;6277012;22;20441;-78
2022/11/24 00:44:11;;;;;;;11.53;2.30;;;6.50;99.90;;;;;;6276894;22;20918;-77
2022/11/24 00:46:39;;;;;;;4.27;1.60;;;6.50;99.90;;;;;;6276189;22;20402;-78
2022/11/24 00:49:07;;;;;;;3.00;2.30;;;6.60;99.90;;;;;;6277671;22;20441;-77
2022/11/24 00:51:34;;;;;;;3.80;1.80;;;6.50;99.90;;;;;;6276936;22;20409;-78
2022/11/24 00:54:01;;;;;;;5.67;2.27;;;6.50;99.90;;;;;;6277153;22;20417;-78
2022/11/24 00:56:29;;;;;;;5.57;2.30;;;6.50;99.90;;;;;;6277495;22;20412;-78
2022/11/24 00:58:56;;;;;;;3.30;2.17;;;6.50;99.90;;;;;;6279905;22;20437;-78
2022/11/24 01:01:25;;;;;;;5.33;2.27;;;6.40;99.90;;;;;;6277071;22;20409;-78
2022/11/24 01:03:54;;;;;;;10.23;2.13;;;6.40;99.90;;;;;;6277176;22;20456;-78
2022/11/24 01:06:23;;;;;;;2.70;2.10;;;6.40;99.90;;;;;;6276030;22;20439;-78
2022/11/24 01:08:50;;;;;;;3.53;2.10;;;6.50;99.90;;;;;;6277467;22;21024;-78
2022/11/24 01:11:19;;;;;;;4.17;1.77;;;6.40;99.90;;;;;;6277616;22;20425;-78
2022/11/24 01:13:49;;;;;;;3.73;1.80;;;6.40;99.90;;;;;;6277186;22;20409;-78
2022/11/24 01:16:19;;;;;;;4.33;2.30;;;6.40;99.90;;;;;;6276864;22;20913;-78
2022/11/24 01:18:46;;;;;;;2.90;2.27;;;6.40;99.90;;;;;;6277181;22;20423;-77
2022/11/24 01:21:18;;;;;;;3.60;2.20;;;6.40;99.90;;;;;;6277729;22;20493;-79
2022/11/24 01:23:45;;;;;;;3.07;2.20;;;6.30;99.90;;;;;;6277963;22;20448;-78
2022/11/24 01:26:15;;;;;;;10.20;2.20;;;6.30;99.90;;;;;;6279039;22;20544;-78
2022/11/24 01:28:42;;;;;;;2.90;1.60;;;6.20;99.90;;;;;;6279399;22;20448;-78
2022/11/24 01:31:12;;;;;;;5.40;2.03;;;7.10;99.90;;;;;;6278528;22;20441;-78
2022/11/24 01:33:39;;;;;;;3.20;2.43;;;6.30;99.90;;;;;;6275985;22;20413;-79
2022/11/24 01:36:06;;;;;;;3.30;2.00;;;6.40;99.90;;;;;;6276426;22;20437;-79
2022/11/24 01:38:40;;;;;;;6.27;1.90;;;6.40;99.90;;;;;;6277217;22;20894;-78
2022/11/24 01:41:11;;;;;;;9.97;3.10;;;6.40;99.90;;;;;;6277203;22;20413;-78
2022/11/24 01:43:38;;;;;;;3.10;1.90;;;6.40;99.90;;;;;;6278643;22;20413;-78
2022/11/24 01:46:12;;;;;;;4.53;2.53;;;6.40;99.90;;;;;;6277083;22;20487;-78
2022/11/24 01:48:43;;;;;;;5.07;1.60;;;6.70;99.90;;;;;;6278625;22;20448;-78
2022/11/24 01:51:17;;;;;;;2.50;1.33;;;6.40;99.90;;;;;;6279146;22;20394;-78
2022/11/24 01:53:51;;;;;;;3.90;1.80;;;6.40;99.90;;;;;;6278798;22;20405;-78
2022/11/24 01:56:19;;;;;;;2.43;1.73;;;6.40;99.90;;;;;;6279071;22;20951;-78
2022/11/24 01:58:48;;;;;;;6.53;1.70;;;6.40;99.90;;;;;;6278179;22;21010;-79
2022/11/24 02:01:20;;;;;;;2.00;1.60;;;6.30;99.90;;;;;;6277905;22;20405;-79
2022/11/24 02:03:50;;;;;;;8.37;2.70;;;6.30;99.90;;;;;;6278832;22;20468;-78
2022/11/24 02:06:26;;;;;;;3.53;1.67;;;6.30;99.90;;;;;;6278347;22;20425;-78
2022/11/24 02:09:01;;;;;;;5.53;1.50;;;6.30;99.90;;;;;;6277872;22;20485;-78
2022/11/24 02:11:33;;;;;;;5.10;1.97;;;6.30;99.90;;;;;;6279059;22;20401;-79
2022/11/24 02:14:00;;;;;;;4.90;2.40;;;6.30;99.90;;;;;;6279338;22;20421;-78
2022/11/24 02:16:27;;;;;;;3.40;1.30;;;6.20;99.90;;;;;;6279467;22;20473;-78
2022/11/24 02:18:54;;;;;;;3.93;2.33;;;6.20;99.90;;;;;;6280488;22;20401;-79
2022/11/24 02:21:21;;;;;;;2.40;1.60;;;6.20;99.90;;;;;;6282154;22;20413;-80
2022/11/24 02:23:57;;;;;;;2.13;1.53;;;6.10;99.90;;;;;;6280206;22;20413;-78
2022/11/24 02:26:42;;;;;;;1.40;1.30;;;6.10;99.90;;;;;;6277824;22;20397;-78
2022/11/24 02:29:23;;;;;;;1.93;1.50;;;6.10;99.90;;;;;;6279215;22;20448;-79
2022/11/24 02:31:55;;;;;;;5.20;1.63;;;6.10;99.90;;;;;;6277638;22;20409;-78
2022/11/24 02:34:22;;;;;;;5.13;1.63;;;6.20;99.90;;;;;;6278080;22;20428;-78
2022/11/24 02:36:48;;;;;;;5.70;2.37;;;7.20;99.90;;;;;;6278024;22;20428;-78
2022/11/24 02:39:16;;;;;;;2.50;1.50;;;6.20;99.90;;;;;;6276779;22;20401;-78
2022/11/24 02:41:54;;;;;;;2.47;1.53;;;6.20;99.90;;;;;;6275851;22;20463;-77
2022/11/24 02:44:23;;;;;;;1.77;1.37;;;6.20;99.90;;;;;;6275061;22;20898;-79
2022/11/24 02:47:09;;;;;;;1.87;1.23;;;6.40;99.90;;;;;;6275986;22;20972;-78
2022/11/24 02:49:36;;;;;;;1.90;1.23;;;6.30;99.90;;;;;;6276187;22;20433;-78
2022/11/24 02:52:03;;;;;;;5.30;1.70;;;6.20;99.90;;;;;;6277358;22;20431;-77
2022/11/24 02:54:35;;;;;;;1.47;1.33;;;6.20;99.90;;;;;;6277499;22;20409;-78
2022/11/24 02:57:03;;;;;;;1.40;1.27;;;6.20;99.90;;;;;;6278434;22;20413;-78
2022/11/24 02:59:30;;;;;;;1.33;1.23;;;6.20;99.90;;;;;;6277915;22;20441;-78
2022/11/24 03:01:57;;;;;;;2.13;1.03;;;6.20;99.90;;;;;;6278078;22;20911;-78
2022/11/24 03:04:34;;;;;;;1.63;1.10;;;6.20;99.90;;;;;;6277944;22;20425;-77
2022/11/24 03:07:01;;;;;;;6.00;1.40;;;6.20;99.90;;;;;;6277617;22;20393;-77
2022/11/24 03:09:30;;;;;;;1.87;1.30;;;6.20;99.90;;;;;;6277126;22;20837;-77
2022/11/24 03:11:57;;;;;;;1.83;1.40;;;6.20;99.90;;;;;;6277747;22;20467;-77
2022/11/24 03:14:25;;;;;;;1.33;1.10;;;6.20;99.90;;;;;;6277833;22;20447;-77
2022/11/24 03:16:52;;;;;;;1.53;1.13;;;6.20;99.90;;;;;;6278415;22;20800;-78
2022/11/24 03:19:19;;;;;;;5.53;1.80;;;6.10;99.90;;;;;;6278853;22;20432;-78
2022/11/24 03:21:47;;;;;;;1.60;1.17;;;6.10;99.90;;;;;;6278823;22;20438;-77
2022/11/24 03:24:14;;;;;;;1.30;1.20;;;6.10;99.90;;;;;;6279128;22;20417;-77
2022/11/24 03:26:41;;;;;;;3.80;1.40;;;6.10;99.90;;;;;;6276878;22;20410;-77
2022/11/24 03:34:28;;;;;;;6.80;1.97;;;6.20;99.90;;;;;;6263475;22;20509;-76
2022/11/24 03:36:55;;;;;;;1.80;1.43;;;6.20;99.90;;;;;;6277348;22;20934;-76
2022/11/24 03:39:26;;;;;;;2.97;0.93;;;6.20;99.90;;;;;;6276736;22;20918;-78
2022/11/24 03:41:53;;;;;;;1.77;1.10;;;6.10;99.90;;;;;;6277239;22;20394;-76
2022/11/24 03:44:20;;;;;;;5.13;1.30;;;6.10;99.90;;;;;;6276813;22;20938;-77
2022/11/24 03:46:46;;;;;;;4.33;1.10;;;6.10;99.90;;;;;;6276622;22;20413;-76
2022/11/24 03:49:21;;;;;;;1.97;1.13;;;6.20;99.90;;;;;;6277085;22;20534;-77
2022/11/24 03:51:49;;;;;;;1.87;1.23;;;6.20;99.90;;;;;;6275383;22;20394;-76
2022/11/24 03:54:16;;;;;;;4.70;1.50;;;6.20;99.90;;;;;;6277971;22;20445;-77
2022/11/24 03:56:48;;;;;;;1.30;1.00;;;6.20;99.90;;;;;;6280966;22;20481;-77
2022/11/24 03:59:15;;;;;;;1.23;1.10;;;6.70;99.90;;;;;;6281199;22;20394;-77
2022/11/24 04:01:42;;;;;;;1.67;1.20;;;6.20;99.90;;;;;;6280468;22;20488;-78
2022/11/24 04:04:10;;;;;;;1.30;1.00;;;6.20;99.90;;;;;;6279968;22;20433;-77
2022/11/24 04:06:38;;;;;;;1.90;1.40;;;6.20;99.90;;;;;;6280220;22;20487;-78
2022/11/24 04:09:09;;;;;;;3.47;1.23;;;6.20;99.90;;;;;;6277618;22;20467;-77
2022/11/24 04:14:20;;;;;;;2.13;1.17;;;6.30;99.90;;;;;;6253685;23;20474;-77
2022/11/24 04:16:47;;;;;;;1.17;1.07;;;6.30;99.90;;;;;;6252002;23;20410;-77
2022/11/24 04:19:19;;;;;;;2.47;1.30;;;6.20;99.90;;;;;;6251667;23;20441;-77
2022/11/24 04:21:46;;;;;;;2.70;1.13;;;6.30;99.90;;;;;;6251291;23;20425;-77
2022/11/24 04:24:14;;;;;;;1.70;0.80;;;6.30;99.90;;;;;;6250599;23;20460;-77
2022/11/24 04:26:41;;;;;;;1.60;1.10;;;6.20;99.90;;;;;;6251412;23;20457;-77
2022/11/24 04:29:12;;;;;;;2.07;1.20;;;6.20;99.90;;;;;;6250808;23;20477;-78
2022/11/24 04:31:39;;;;;;;4.70;1.40;;;6.20;99.90;;;;;;6249835;23;20802;-77
2022/11/24 04:34:05;;;;;;;1.47;1.10;;;6.30;99.90;;;;;;6249789;23;20464;-77
2022/11/24 04:36:32;;;;;;;1.50;1.17;;;6.30;99.90;;;;;;6250217;23;20413;-77
2022/11/24 04:41:41;;;;;;;1.93;1.07;;;6.30;99.90;;;;;;6250196;23;20416;-77
2022/11/24 04:44:08;;;;;;;1.97;1.33;;;5.60;99.90;;;;;;6250680;23;20407;-77
2022/11/24 04:46:35;;;;;;;1.90;1.20;;;6.40;99.90;;;;;;6251022;23;20414;-77
2022/11/24 04:49:02;;;;;;;2.23;1.20;;;6.40;99.90;;;;;;6249493;23;20466;-78
2022/11/24 04:51:31;;;;;;;4.17;1.50;;;6.40;99.90;;;;;;6249264;23;20410;-78
2022/11/24 04:53:58;;;;;;;2.60;1.60;;;6.40;99.90;;;;;;6249801;23;20407;-78
2022/11/24 04:56:25;;;;;;;3.07;1.30;;;6.40;99.90;;;;;;6249060;23;20410;-78
2022/11/24 04:58:54;;;;;;;3.83;1.20;;;6.30;99.90;;;;;;6248285;23;20421;-77
2022/11/24 05:01:20;;;;;;;3.43;1.20;;;6.40;99.90;;;;;;6250299;23;20414;-77
2022/11/24 05:03:47;;;;;;;1.77;1.57;;;6.40;99.90;;;;;;6250616;23;20415;-77
2022/11/24 05:08:55;;;;;;;2.80;1.63;;;6.40;99.90;;;;;;6249122;23;20440;-77
2022/11/24 05:11:22;;;;;;;4.90;2.87;;;6.40;99.90;;;;;;6244111;22;20454;-79
2022/11/24 05:13:49;;;;;;;2.87;1.60;;;6.40;99.90;;;;;;6243505;23;20442;-79
2022/11/24 05:16:17;;;;;;;3.53;1.33;;;6.20;99.90;;;;;;6240299;23;20954;-78
2022/11/24 05:18:44;;;;;;;3.57;1.50;;;6.30;99.90;;;;;;6240870;23;20504;-78
2022/11/24 05:21:11;;;;;;;2.50;1.53;;;6.40;99.90;;;;;;6241883;23;20413;-78
2022/11/24 05:23:46;;;;;;;2.37;1.60;;;6.50;99.90;;;;;;6241231;23;20418;-78
2022/11/24 05:26:14;;;;;;;2.80;1.47;;;6.40;99.90;;;;;;6246314;23;20393;-78
2022/11/24 05:28:41;;;;;;;5.00;1.87;;;6.50;99.90;;;;;;6240620;23;20493;-77
2022/11/24 05:31:08;;;;;;;5.10;1.57;;;6.40;99.90;;;;;;6240682;23;20482;-77
2022/11/24 05:33:37;;;;;;;3.93;1.70;;;6.40;99.90;;;;;;6241343;23;20923;-82
2022/11/24 05:36:05;;;;;;;4.50;1.57;;;6.30;99.90;;;;;;6240965;23;20492;-81
2022/11/24 05:38:54;;;;;;;4.70;1.80;;;6.30;99.90;;;;;;6251062;23;20414;-80
2022/11/24 05:41:21;;;;;;;3.20;1.67;;;6.40;99.90;;;;;;6240647;23;20959;-72
2022/11/24 05:43:48;;;;;;;5.27;2.10;;;6.40;99.90;;;;;;6240625;23;20423;-73
2022/11/24 05:46:15;;;;;;;4.90;1.70;;;6.40;99.90;;;;;;6240828;23;20406;-78
2022/11/24 05:48:43;;;;;;;7.20;1.90;;;6.40;99.90;;;;;;6240674;23;21144;-73
2022/11/24 05:51:10;;;;;;;8.43;1.97;;;6.40;99.90;;;;;;6240428;23;20515;-73
2022/11/24 05:53:44;;;;;;;6.90;1.90;;;6.40;99.90;;;;;;6239563;23;20460;-73
2022/11/24 05:56:11;;;;;;;5.73;2.00;;;6.50;99.90;;;;;;6240779;23;20395;-74
2022/11/24 05:58:38;;;;;;;4.77;2.20;;;6.40;99.90;;;;;;6239544;23;20409;-73
2022/11/24 06:01:06;;;;;;;5.73;1.63;;;6.50;99.90;;;;;;6239119;23;20410;-73
2022/11/24 06:03:34;;;;;;;6.93;2.40;;;6.50;99.90;;;;;;6238516;23;20433;-73
2022/11/24 06:06:03;;;;;;;8.57;3.53;;;6.40;99.90;;;;;;6238925;23;20489;-73
2022/11/24 06:08:30;;;;;;;8.17;3.10;;;6.50;99.90;;;;;;6239166;23;20449;-76
2022/11/24 06:11:15;;;;;;;4.17;2.40;;;6.50;99.90;;;;;;6241432;22;20465;-75
2022/11/24 06:13:43;;;;;;;8.73;1.77;;;6.50;99.90;;;;;;6241605;23;20445;-76
2022/11/24 06:16:10;;;;;;;4.40;2.83;;;6.50;99.90;;;;;;6248641;23;20437;-76
2022/11/24 06:18:41;;;;;;;7.10;2.60;;;6.60;99.90;;;;;;6240874;23;20481;-75
2022/11/24 06:21:09;;;;;;;8.13;2.63;;;6.60;99.90;;;;;;6241816;23;20401;-75
2022/11/24 06:23:36;;;;;;;10.63;2.17;;;6.60;99.90;;;;;;6240850;23;20410;-75
2022/11/24 06:26:03;;;;;;;4.33;2.30;;;6.60;99.90;;;;;;6239894;23;20410;-74
2022/11/24 06:31:11;;;;;;;3.10;1.50;;;6.60;99.90;;;;;;6239526;23;20449;-72
2022/11/24 06:33:39;;;;;;;4.97;2.20;;;6.60;99.90;;;;;;6240909;23;21390;-73
2022/11/24 06:36:10;;;;;;;8.40;2.10;;;6.90;99.90;;;;;;6241381;23;20500;-72
2022/11/24 06:38:38;;;;;;;4.40;1.77;;;6.80;99.90;;;;;;6241243;23;20398;-75
2022/11/24 06:41:07;;;;;;;3.63;2.43;;;6.80;99.90;;;;;;6240542;23;20412;-73
2022/11/24 06:43:34;;;;;;;3.40;1.70;;;6.70;99.90;;;;;;6241727;23;20406;-77
2022/11/24 06:46:02;;;;;;;8.70;2.13;;;6.70;99.90;;;;;;6240740;23;20445;-75
2022/11/24 06:48:30;;;;;;;4.17;1.80;;;6.90;99.90;;;;;;6241685;23;20414;-71
2022/11/24 06:50:59;;;;;;;4.17;2.07;;;6.80;99.90;;;;;;6240561;23;20516;-73
2022/11/24 06:53:36;;;;;;;4.63;2.40;;;6.80;99.90;;;;;;6240931;23;20444;-72
2022/11/24 06:56:07;;;;;;;2.77;1.80;;;6.80;99.90;;;;;;6241594;23;20954;-75
2022/11/24 06:58:53;;;;;;;7.07;2.77;;;6.80;99.90;;;;;;6241053;23;20470;-74
2022/11/24 07:01:22;;;;;;;6.07;2.10;;;6.80;99.90;;;;;;6240135;23;20476;-75
2022/11/24 07:03:50;;;;;;;3.07;2.33;;;6.70;99.90;;;;;;6239814;23;20452;-75
2022/11/24 07:06:20;;;;;;;4.30;2.00;;;6.70;99.90;;;;;;6240461;23;20390;-75
2022/11/24 07:08:49;;;;;;;3.60;2.13;;;6.70;99.90;;;;;;6247757;23;20489;-75
2022/11/24 07:11:18;;;;;;;6.60;2.07;;;6.80;99.90;;;;;;6251495;22;20453;-75
2022/11/24 07:13:46;;;;;;;3.80;3.03;;;6.80;99.90;;;;;;6243906;23;20419;-75
2022/11/24 07:16:19;;;;;;;4.83;2.60;;;6.80;99.90;;;;;;6240705;23;20486;-75
2022/11/24 07:18:48;;;;;;;9.93;2.53;;;6.70;99.90;;;;;;6240809;23;20723;-75
2022/11/24 07:21:15;;;;;;;4.57;1.97;;;6.80;99.90;;;;;;6241020;23;20714;-76
2022/11/24 07:23:42;;;;;;;9.23;2.47;;;6.80;99.90;;;;;;6240616;23;20473;-74
2022/11/24 07:26:18;;;;;;;5.23;2.10;;;6.70;99.90;;;;;;6240758;23;20434;-75
2022/11/24 07:28:45;;;;;;;6.33;2.27;;;6.80;99.90;;;;;;6241703;23;20414;-77
2022/11/24 07:31:14;;;;;;;5.23;2.23;;;6.80;99.90;;;;;;6240505;23;20446;-75
2022/11/24 07:33:41;;;;;;;4.20;2.50;;;6.70;99.90;;;;;;6240403;23;20415;-76
2022/11/24 07:36:09;;;;;;;14.10;2.93;;;6.70;99.90;;;;;;6240362;23;20501;-76
2022/11/24 07:38:36;;;;;;;8.77;1.70;;;6.50;99.90;;;;;;6240949;23;20410;-76
2022/11/24 07:41:05;;;;;;;7.60;3.43;;;6.50;99.90;;;;;;6240173;23;20406;-75
2022/11/24 07:43:34;;;;;;;5.57;1.70;;;6.50;99.90;;;;;;6240564;23;20445;-74
2022/11/24 07:46:02;;;;;;;4.97;1.80;;;6.60;99.90;;;;;;6241418;23;20434;-74
2022/11/24 07:48:34;;;;;;;7.97;3.00;;;6.70;99.90;;;;;;6241233;23;20487;-75
2022/11/24 07:51:03;;;;;;;9.10;2.60;;;6.70;99.90;;;;;;6240727;23;21030;-76
2022/11/24 07:53:30;;;;;;;6.60;1.90;;;6.70;99.90;;;;;;6240866;23;20907;-75
2022/11/24 07:55:59;;;;;;;6.53;2.07;;;6.70;99.90;;;;;;6239023;23;20752;-75
2022/11/24 07:58:28;;;;;;;6.30;1.70;;;6.80;99.90;;;;;;6239589;23;20892;-76
2022/11/24 08:00:57;;;;;;;4.17;2.40;;;6.80;99.90;;;;;;6240948;23;20434;-76
2022/11/24 08:03:27;;;;;;;4.63;1.70;;;6.80;99.90;;;;;;6245285;23;20691;-76
2022/11/24 08:05:55;;;;;;;7.10;1.80;;;6.80;99.90;;;;;;6241858;23;20390;-76
2022/11/24 08:08:22;;;;;;;11.57;2.17;;;6.80;99.90;;;;;;6240926;23;20407;-76
2022/11/24 08:10:49;;;;;;;2.80;1.40;;;7.00;99.90;;;;;;6240094;22;20454;-76
2022/11/24 08:13:16;;;;;;;3.37;1.30;;;7.00;99.90;;;;;;6240127;23;20410;-75
2022/11/24 08:15:43;;;;;;;5.20;1.90;;;7.00;99.90;;;;;;6240342;23;20406;-75
2022/11/24 08:18:16;;;;;;;7.83;2.27;;;6.90;99.90;;;;;;6240651;23;20399;-76
2022/11/24 08:20:45;;;;;;;1.77;1.40;;;6.90;99.90;;;;;;6241278;23;20469;-76
2022/11/24 08:23:12;;;;;;;1.87;1.60;;;7.00;99.90;;;;;;6240187;23;20406;-76
2022/11/24 08:25:39;;;;;;;5.33;1.87;;;7.00;99.90;;;;;;6240254;23;20737;-76
2022/11/24 08:30:46;;;;;;;4.23;2.17;;;7.10;99.90;;;;;;6238085;23;20442;-74
2022/11/24 08:33:15;;;;;;;16.97;4.57;;;7.30;99.90;;;;;;6237161;23;20811;-76
2022/11/24 08:35:42;;;;;;;8.57;1.63;;;7.30;99.90;;;;;;6240057;23;20650;-76
2022/11/24 08:38:09;;;;;;;5.40;2.50;;;7.40;99.90;;;;;;6239020;23;20410;-77
2022/11/24 08:40:36;;;;;;;3.33;2.20;;;7.50;99.90;;;;;;6239158;23;20406;-75
2022/11/24 08:43:03;;;;;;;6.33;2.60;;;7.70;99.90;;;;;;6239197;23;20461;-76
2022/11/24 08:45:29;;;;;;;9.60;2.33;;;7.60;99.90;;;;;;6239283;23;20413;-76
2022/11/24 08:47:57;;;;;;;6.90;2.37;;;7.60;99.90;;;;;;6240066;23;20469;-76
2022/11/24 08:50:26;;;;;;;5.90;1.87;;;7.70;99.90;;;;;;6239324;23;20500;-75
2022/11/24 08:52:53;;;;;;;4.83;1.87;;;7.80;99.90;;;;;;6238753;23;20438;-76
2022/11/24 08:55:21;;;;;;;6.00;1.57;;;7.70;99.90;;;;;;6240648;23;21184;-75
2022/11/24 08:57:48;;;;;;;6.60;2.03;;;7.80;99.90;;;;;;6239950;23;20406;-76
2022/11/24 09:00:21;;;;;;;4.77;2.00;;;7.90;99.90;;;;;;6238524;23;20402;-76
2022/11/24 09:02:54;;;;;;;2.80;1.97;;;7.90;99.90;;;;;;6238629;23;20800;-75
2022/11/24 09:05:21;;;;;;;3.43;2.10;;;8.00;99.90;;;;;;6238227;23;20429;-77
2022/11/24 09:07:51;;;;;;;2.90;1.70;;;8.10;99.90;;;;;;6238195;23;20513;-75
2022/11/24 09:10:18;;;;;;;6.67;2.43;;;8.20;99.90;;;;;;6238637;22;20676;-75
2022/11/24 09:12:46;;;;;;;8.00;2.30;;;8.00;99.90;;;;;;6239177;23;20414;-76
2022/11/24 09:15:15;;;;;;;6.33;1.47;;;8.00;99.90;;;;;;6237722;23;20722;-76
2022/11/24 09:17:42;;;;;;;1.77;1.40;;;8.00;99.90;;;;;;6237058;23;20418;-75
2022/11/24 09:20:09;;;;;;;7.30;1.77;;;8.10;99.90;;;;;;6238250;23;20476;-74
2022/11/24 09:22:37;;;;;;;3.83;1.83;;;8.00;99.90;;;;;;6239277;23;20411;-75
2022/11/24 09:25:06;;;;;;;2.67;1.80;;;8.00;99.90;;;;;;6239673;23;20979;-74
2022/11/24 09:27:33;;;;;;;3.93;1.70;;;8.00;99.90;;;;;;6239817;23;20411;-74
2022/11/24 09:30:00;;;;;;;6.53;2.13;;;8.20;99.90;;;;;;6239893;23;20418;-76
2022/11/24 09:32:29;;;;;;;2.10;1.43;;;8.30;99.90;;;;;;6239080;23;20498;-76
2022/11/24 09:34:56;;;;;;;6.63;2.33;;;8.40;99.90;;;;;;6244514;23;20442;-88
2022/11/24 09:40:26;;;;;;;3.50;1.93;;;8.30;99.90;;;;;;6247381;22;20958;-88
2022/11/24 09:57:42;;;;;;;11.07;2.60;;;8.40;99.90;;;;;;6257176;22;20458;-88
2022/11/24 10:50:34;;;;;;;2.80;1.43;;;6.50;99.90;;;;;;6195295;22;21288;31
2022/11/24 11:10:27;;;;;;;5.23;1.53;;;6.90;99.90;;;;;;6272268;22;20568;-78
2022/11/24 12:15:18;;;;;;;2.63;1.40;;;6.30;99.90;;;;;;6258243;22;20447;-78
2022/11/24 12:18:04;;;;;;;3.70;1.80;;;6.30;99.90;;;;;;6293180;22;20401;-80
2022/11/24 13:38:57;;;;;;;9.33;3.23;;;6.70;99.90;;;;;;6267693;22;21024;-73
2022/11/24 13:42:08;;;;;;;3.50;3.20;;;6.70;99.90;;;;;;6293051;22;20516;-73
2022/11/24 13:44:53;;;;;;;3.30;2.17;;;6.70;99.90;;;;;;6300055;22;20612;-72
2022/11/24 13:47:42;;;;;;;9.60;2.40;;;6.80;99.90;;;;;;6296748;22;20414;-73
2022/11/24 13:50:11;;;;;;;4.50;2.20;;;;;;;;;;6295981;22;20417;-73
2022/11/24 13:52:44;;;;;;;2.70;2.50;;;7.50;99.90;;;;;;6296399;22;20481;-73
2022/11/24 13:55:31;;;;;;;2.23;1.67;;;7.70;99.90;;;;;;6296935;22;20417;-72
2022/11/24 13:58:03;;;;;;;6.53;2.20;;;7.50;99.90;;;;;;6296776;22;20424;-72
2022/11/24 14:00:38;;;;;;;2.30;1.97;;;7.10;99.90;;;;;;6295206;22;20462;-72
2022/11/24 14:03:18;;;;;;;2.90;1.73;;;7.10;99.90;;;;;;6297497;22;20405;-72
2022/11/24 14:05:48;;;;;;;4.90;2.27;;;7.20;99.90;;;;;;6295855;22;20442;-74
2022/11/24 14:08:21;;;;;;;3.10;1.90;;;7.10;99.90;;;;;;6295981;22;20397;-72
2022/11/24 14:10:51;;;;;;;4.53;2.13;;;7.10;99.90;;;;;;6270302;22;20429;-72
2022/11/24 14:13:25;;;;;;;4.60;2.00;;;7.50;99.90;;;;;;6264711;22;20489;-71
2022/11/24 14:16:14;;;;;;;6.50;2.60;;;6.90;99.90;;;;;;6265288;22;20402;-72
2022/11/24 14:18:43;;;;;;;11.00;2.80;;;7.00;99.90;;;;;;6264939;22;20472;-72
2022/11/24 14:21:25;;;;;;;8.20;2.03;;;7.00;99.90;;;;;;6264529;22;20493;-72
2022/11/24 14:23:55;;;;;;;2.03;1.77;;;7.20;99.90;;;;;;6263199;22;20389;-72
2022/11/24 14:26:26;;;;;;;5.43;2.40;;;7.30;99.90;;;;;;6264271;22;20498;-72
2022/11/24 14:28:54;;;;;;;1.77;1.60;;;7.00;99.90;;;;;;6264303;22;20413;-71
2022/11/24 14:31:24;;;;;;;3.60;2.10;;;7.10;99.90;;;;;;6265728;22;20526;-71
2022/11/24 14:34:06;;;;;;;3.83;1.87;;;7.40;99.90;;;;;;6266036;22;20401;-72
2022/11/24 14:36:33;;;;;;;4.90;2.07;;;7.00;99.90;;;;;;6266836;22;20480;-72
2022/11/24 14:39:00;;;;;;;2.80;1.70;;;7.00;99.90;;;;;;6265598;22;20789;-71
2022/11/24 14:41:28;;;;;;;4.60;1.57;;;7.20;99.90;;;;;;6266691;22;20488;-77
2022/11/24 14:44:18;;;;;;;2.93;2.00;;;7.20;99.90;;;;;;6266304;22;20747;-74
2022/11/24 14:46:45;;;;;;;2.23;1.80;;;7.00;99.90;;;;;;6269149;22;20481;-74
2022/11/24 14:49:21;;;;;;;2.40;1.60;;;7.00;99.90;;;;;;6267689;22;20749;-76
2022/11/24 14:51:56;;;;;;;3.57;1.73;;;7.20;99.90;;;;;;6267152;22;20430;-74
2022/11/24 14:54:27;;;;;;;2.93;1.30;;;7.30;99.90;;;;;;6267556;22;20393;-76
2022/11/24 14:57:26;;;;;;;4.27;1.23;;;6.80;99.90;;;;;;6262580;22;20436;-75
2022/11/24 15:00:18;;;;;;;3.00;1.93;;;6.20;99.90;;;;;;6269364;22;20405;-75
2022/11/24 15:02:48;;;;;;;2.60;1.20;;;5.80;99.90;;;;;;6268753;22;20385;-75
2022/11/24 15:05:16;;;;;;;2.30;1.30;;;5.50;99.90;;;;;;6268568;22;20500;-75
2022/11/24 15:10:36;;;;;;;2.70;1.97;;;5.90;99.90;;;;;;6266620;22;20426;-70
2022/11/24 15:13:13;;;;;;;2.73;1.50;;;5.80;99.90;;;;;;6265052;22;20518;-73
2022/11/24 15:15:46;;;;;;;1.97;1.60;;;5.90;99.90;;;;;;6265227;22;20929;-71
2022/11/24 15:18:25;;;;;;;5.43;1.30;;;5.80;99.90;;;;;;6263871;22;20822;-76
2022/11/24 15:20:53;;;;;;;1.83;1.20;;;6.00;99.90;;;;;;6265596;22;20408;-74
2022/11/24 15:23:29;;;;;;;5.50;1.83;;;5.90;99.90;;;;;;6265276;22;20425;-74
2022/11/24 15:26:01;;;;;;;1.93;1.27;;;5.80;99.90;;;;;;6264708;22;20437;-74
2022/11/24 15:28:32;;;;;;;3.00;1.80;;;6.00;99.90;;;;;;6266102;22;20424;-74
2022/11/24 15:31:01;;;;;;;4.33;1.70;;;6.00;99.90;;;;;;6265494;22;20398;-74
2022/11/24 15:33:29;;;;;;;2.50;1.73;;;6.10;99.90;;;;;;6265475;22;20918;-74
2022/11/24 15:41:21;;;;;;;2.40;1.80;;;6.20;99.90;;;;;;6265913;22;20412;-82
2022/11/24 15:43:49;;;;;;;4.80;3.13;;;6.20;99.90;;;;;;6272391;22;20451;-83
2022/11/24 15:46:16;;;;;;;5.10;2.60;;;6.40;99.90;;;;;;6263357;22;20409;-83
2022/11/24 15:48:43;;;;;;;7.03;4.00;;;6.00;99.90;;;;;;6266515;22;20414;-82
2022/11/24 15:51:14;;;;;;;4.10;2.83;;;6.10;99.90;;;;;;6265202;22;20949;-82
2022/11/24 15:53:44;;;;;;;6.13;4.17;;;6.20;99.90;;;;;;6265643;22;20394;-88
2022/11/24 15:56:15;;;;;;;2.50;2.30;;;6.30;99.90;;;;;;6265682;22;20405;-79
2022/11/24 15:58:42;;;;;;;4.63;3.10;;;6.80;99.90;;;;;;6265496;22;20805;-77
2022/11/24 16:01:11;;;;;;;3.67;2.50;;;6.40;99.90;;;;;;6265252;22;20409;-78
2022/11/24 16:03:39;;;;;;;4.47;3.30;;;5.80;99.90;;;;;;6266111;22;20520;-82
2022/11/24 16:06:11;;;;;;;3.00;2.57;;;6.30;99.90;;;;;;6263891;22;20409;-73
2022/11/24 16:08:38;;;;;;;10.87;5.83;;;6.20;99.90;;;;;;6264380;22;20405;-73
2022/11/24 16:11:05;;;;;;;4.00;2.60;;;6.40;99.90;;;;;;6266209;22;20746;-72
2022/11/24 16:13:32;;;;;;;5.37;3.00;;;6.30;99.90;;;;;;6265169;22;20554;-75
2022/11/24 16:16:03;;;;;;;6.50;3.37;;;6.30;99.90;;;;;;6263497;22;20753;-75
2022/11/24 16:18:33;;;;;;;6.43;3.30;;;6.30;99.90;;;;;;6269631;22;20398;-76
2022/11/24 16:21:00;;;;;;;7.10;2.87;;;6.50;99.90;;;;;;6269214;22;20402;-77
2022/11/24 16:23:27;;;;;;;4.70;3.20;;;6.60;99.90;;;;;;6268889;22;20467;-75
2022/11/24 16:25:54;;;;;;;4.77;3.00;;;6.00;99.90;;;;;;6270027;22;20409;-76
2022/11/24 16:28:21;;;;;;;4.90;2.53;;;6.00;99.90;;;;;;6270122;22;20409;-76
2022/11/24 16:30:49;;;;;;;3.20;2.70;;;5.80;99.90;;;;;;6269921;22;20410;-76
2022/11/24 16:33:16;;;;;;;5.90;3.07;;;6.30;99.90;;;;;;6270238;22;20755;-75
2022/11/24 16:35:47;;;;;;;3.67;2.60;;;6.00;99.90;;;;;;6270138;22;20463;-75
2022/11/24 16:38:16;;;;;;;3.63;3.20;;;5.60;99.90;;;;;;6269985;22;20429;-77
2022/11/24 16:40:43;;;;;;;7.93;4.00;;;5.50;99.90;;;;;;6270379;22;20410;-77
2022/11/24 16:43:10;;;;;;;6.40;3.93;;;6.20;99.90;;;;;;6270700;22;20747;-75
2022/11/24 16:45:37;;;;;;;6.07;3.07;;;5.40;99.90;;;;;;6269683;22;20899;-75
2022/11/24 16:48:04;;;;;;;4.80;2.70;;;5.60;99.90;;;;;;6271920;22;20574;-75
2022/11/24 16:50:31;;;;;;;3.90;2.40;;;5.40;99.90;;;;;;6271554;22;20788;-74
2022/11/24 16:52:59;;;;;;;7.43;3.17;;;5.70;99.90;;;;;;6270757;22;20761;-75
2022/11/24 16:55:26;;;;;;;3.03;2.30;;;5.30;99.90;;;;;;6270490;22;20414;-76
2022/11/24 16:57:53;;;;;;;8.43;4.00;;;5.50;99.90;;;;;;6269739;22;20712;-76
2022/11/24 17:00:20;;;;;;;4.50;2.93;;;5.40;99.90;;;;;;6269848;22;20417;-76
2022/11/24 17:02:47;;;;;;;3.80;3.23;;;5.40;99.90;;;;;;6270033;22;20406;-77
2022/11/24 17:05:22;;;;;;;3.97;2.33;;;5.20;99.90;;;;;;6269995;22;20792;-76
2022/11/24 17:07:49;;;;;;;6.83;2.83;;;4.90;99.90;;;;;;6269870;22;20756;-77
2022/11/24 17:10:17;;;;;;;4.47;3.13;;;5.20;99.90;;;;;;6269834;22;20695;-80
2022/11/24 17:12:44;;;;;;;5.43;3.07;;;5.20;99.90;;;;;;6269797;22;20441;-75
2022/11/24 17:15:11;;;;;;;5.40;3.53;;;5.10;99.90;;;;;;6270076;22;20482;-88
2022/11/24 17:17:38;;;;;;;6.37;3.40;;;5.30;99.90;;;;;;6268719;22;20444;-87
2022/11/24 17:20:07;;;;;;;5.13;4.03;;;5.50;99.90;;;;;;6270137;22;20441;-89
2022/11/24 17:22:34;;;;;;;7.77;4.50;;;5.20;99.90;;;;;;6271733;22;20475;-88
2022/11/24 17:25:01;;;;;;;6.40;3.73;;;5.10;99.90;;;;;;6271190;22;20441;-87
2022/11/24 17:27:29;;;;;;;9.60;4.60;;;5.00;99.90;;;;;;6271007;22;20797;-87